sensor_id;sensor_type;location;lat;lon;timestamp;pressure;altitude;pressure_sealevel;temperature;humidity
37792;BME280;29527;55.766;37.570;2023-02-25T00:00:05;97984.34;;;-0.23;66.96
37792;BME280;29527;55.766;37.570;2023-02-25T00:02:48;97980.03;;;-0.24;66.84
37792;BME280;29527;55.766;37.570;2023-02-25T00:05:15;97972.22;;;-0.25;66.82
37792;BME280;29527;55.766;37.570;2023-02-25T00:07:41;97974.13;;;-0.27;67.02
37792;BME280;29527;55.766;37.570;2023-02-25T00:10:08;97970.25;;;-0.22;67.12
37792;BME280;29527;55.766;37.570;2023-02-25T00:12:36;97967.41;;;-0.19;67.40
37792;BME280;29527;55.766;37.570;2023-02-25T00:15:02;97935.16;;;-0.35;67.11
37792;BME280;29527;55.766;37.570;2023-02-25T00:17:28;97961.50;;;-0.22;67.17
37792;BME280;29527;55.766;37.570;2023-02-25T00:19:54;97956.75;;;-0.17;67.23
37792;BME280;29527;55.766;37.570;2023-02-25T00:22:23;97956.69;;;-0.16;67.41
37792;BME280;29527;55.766;37.570;2023-02-25T00:24:52;97926.34;;;-0.34;67.42
37792;BME280;29527;55.766;37.570;2023-02-25T00:27:18;97953.94;;;-0.14;66.97
37792;BME280;29527;55.766;37.570;2023-02-25T00:29:43;97955.00;;;-0.17;67.09
37792;BME280;29527;55.766;37.570;2023-02-25T00:32:09;97916.84;;;-0.37;67.28
37792;BME280;29527;55.766;37.570;2023-02-25T00:34:34;97949.72;;;-0.17;67.10
37792;BME280;29527;55.766;37.570;2023-02-25T00:37:00;97945.22;;;-0.15;67.22
37792;BME280;29527;55.766;37.570;2023-02-25T00:39:25;97941.34;;;-0.09;66.70
37792;BME280;29527;55.766;37.570;2023-02-25T00:42:09;97933.00;;;-0.16;67.33
37792;BME280;29527;55.766;37.570;2023-02-25T00:44:35;97933.84;;;-0.15;67.21
37792;BME280;29527;55.766;37.570;2023-02-25T00:47:01;97929.50;;;-0.16;67.61
37792;BME280;29527;55.766;37.570;2023-02-25T00:49:27;97935.44;;;-0.12;67.54
37792;BME280;29527;55.766;37.570;2023-02-25T00:51:53;97929.94;;;-0.09;67.58
37792;BME280;29527;55.766;37.570;2023-02-25T00:54:20;97895.94;;;-0.25;67.30
37792;BME280;29527;55.766;37.570;2023-02-25T00:56:46;97886.47;;;-0.28;67.29
37792;BME280;29527;55.766;37.570;2023-02-25T00:59:11;97924.47;;;-0.06;67.74
37792;BME280;29527;55.766;37.570;2023-02-25T01:01:37;97914.16;;;-0.09;67.53
37792;BME280;29527;55.766;37.570;2023-02-25T01:04:03;97921.47;;;0.00;67.00
37792;BME280;29527;55.766;37.570;2023-02-25T01:06:31;97927.63;;;-0.01;67.04
37792;BME280;29527;55.766;37.570;2023-02-25T01:08:58;97912.19;;;-0.06;67.51
37792;BME280;29527;55.766;37.570;2023-02-25T01:11:26;97922.72;;;-0.06;67.65
37792;BME280;29527;55.766;37.570;2023-02-25T01:14:06;97924.81;;;0.02;67.71
37792;BME280;29527;55.766;37.570;2023-02-25T01:16:33;97925.00;;;-0.01;67.32
37792;BME280;29527;55.766;37.570;2023-02-25T01:19:03;97913.56;;;0.00;67.35
37792;BME280;29527;55.766;37.570;2023-02-25T01:21:31;97905.84;;;-0.03;68.00
37792;BME280;29527;55.766;37.570;2023-02-25T01:24:18;97914.09;;;0.05;67.67
37792;BME280;29527;55.766;37.570;2023-02-25T01:26:49;97910.16;;;-0.02;67.50
37792;BME280;29527;55.766;37.570;2023-02-25T01:29:20;97915.78;;;0.06;67.94
37792;BME280;29527;55.766;37.570;2023-02-25T01:31:47;97906.19;;;0.05;67.87
37792;BME280;29527;55.766;37.570;2023-02-25T01:34:17;97900.94;;;0.05;67.60
37792;BME280;29527;55.766;37.570;2023-02-25T01:36:43;97896.41;;;0.07;67.76
37792;BME280;29527;55.766;37.570;2023-02-25T01:39:09;97892.09;;;0.06;67.57
37792;BME280;29527;55.766;37.570;2023-02-25T01:41:36;97904.09;;;0.10;67.75
37792;BME280;29527;55.766;37.570;2023-02-25T01:46:44;97895.03;;;0.14;67.35
37792;BME280;29527;55.766;37.570;2023-02-25T01:49:34;97899.25;;;0.17;67.52
37792;BME280;29527;55.766;37.570;2023-02-25T01:54:29;97906.41;;;0.15;67.39
37792;BME280;29527;55.766;37.570;2023-02-25T01:56:56;97891.44;;;0.16;67.75
37792;BME280;29527;55.766;37.570;2023-02-25T01:59:24;97899.34;;;0.16;67.87
37792;BME280;29527;55.766;37.570;2023-02-25T02:01:51;97895.97;;;0.13;67.36
37792;BME280;29527;55.766;37.570;2023-02-25T02:04:17;97881.34;;;0.09;67.85
37792;BME280;29527;55.766;37.570;2023-02-25T02:06:45;97890.06;;;0.10;67.92
37792;BME280;29527;55.766;37.570;2023-02-25T02:09:15;97887.56;;;0.21;67.68
37792;BME280;29527;55.766;37.570;2023-02-25T02:11:41;97887.75;;;0.18;67.95
37792;BME280;29527;55.766;37.570;2023-02-25T02:14:10;97885.88;;;0.20;68.12
37792;BME280;29527;55.766;37.570;2023-02-25T02:19:20;97875.03;;;0.25;67.62
37792;BME280;29527;55.766;37.570;2023-02-25T02:27:02;97876.59;;;0.27;67.43
37792;BME280;29527;55.766;37.570;2023-02-25T02:29:47;97876.72;;;0.26;67.58
37792;BME280;29527;55.766;37.570;2023-02-25T02:35:34;97863.75;;;0.23;68.04
37792;BME280;29527;55.766;37.570;2023-02-25T02:40:46;97852.47;;;0.34;67.26
37792;BME280;29527;55.766;37.570;2023-02-25T02:46:09;97852.06;;;0.27;67.71
37792;BME280;29527;55.766;37.570;2023-02-25T02:48:43;97830.63;;;0.07;67.95
37792;BME280;29527;55.766;37.570;2023-02-25T02:51:24;97863.66;;;0.24;68.46
37792;BME280;29527;55.766;37.570;2023-02-25T02:53:54;97860.91;;;0.26;67.73
37792;BME280;29527;55.766;37.570;2023-02-25T02:56:23;97858.47;;;0.23;68.65
37792;BME280;29527;55.766;37.570;2023-02-25T02:59:01;97858.47;;;0.23;68.25
37792;BME280;29527;55.766;37.570;2023-02-25T03:01:37;97853.63;;;0.30;68.38
37792;BME280;29527;55.766;37.570;2023-02-25T03:04:12;97814.38;;;0.13;68.33
37792;BME280;29527;55.766;37.570;2023-02-25T03:06:41;97845.72;;;0.30;68.44
37792;BME280;29527;55.766;37.570;2023-02-25T03:09:17;97838.34;;;0.35;68.04
37792;BME280;29527;55.766;37.570;2023-02-25T03:11:43;97853.31;;;0.34;68.19
37792;BME280;29527;55.766;37.570;2023-02-25T03:14:13;97851.09;;;0.41;68.17
37792;BME280;29527;55.766;37.570;2023-02-25T03:16:46;97838.53;;;0.45;67.94
37792;BME280;29527;55.766;37.570;2023-02-25T03:19:19;97849.69;;;0.48;67.78
37792;BME280;29527;55.766;37.570;2023-02-25T03:21:57;97845.91;;;0.52;68.04
37792;BME280;29527;55.766;37.570;2023-02-25T03:24:31;97830.09;;;0.52;67.77
37792;BME280;29527;55.766;37.570;2023-02-25T03:27:00;97834.19;;;0.56;67.22
37792;BME280;29527;55.766;37.570;2023-02-25T03:29:39;97832.19;;;0.60;67.22
37792;BME280;29527;55.766;37.570;2023-02-25T03:32:08;97823.44;;;0.60;66.85
37792;BME280;29527;55.766;37.570;2023-02-25T03:34:41;97795.81;;;0.41;66.97
37792;BME280;29527;55.766;37.570;2023-02-25T03:37:24;97832.69;;;0.65;67.18
37792;BME280;29527;55.766;37.570;2023-02-25T03:39:55;97834.38;;;0.66;67.22
37792;BME280;29527;55.766;37.570;2023-02-25T03:42:28;97831.75;;;0.66;66.87
37792;BME280;29527;55.766;37.570;2023-02-25T03:44:57;97833.63;;;0.64;67.09
37792;BME280;29527;55.766;37.570;2023-02-25T03:47:25;97832.91;;;0.62;67.25
37792;BME280;29527;55.766;37.570;2023-02-25T03:50:02;97837.72;;;0.68;67.22
37792;BME280;29527;55.766;37.570;2023-02-25T03:52:30;97836.06;;;0.67;66.90
37792;BME280;29527;55.766;37.570;2023-02-25T03:54:57;97822.78;;;0.69;66.99
37792;BME280;29527;55.766;37.570;2023-02-25T03:57:26;97821.94;;;0.68;67.13
37792;BME280;29527;55.766;37.570;2023-02-25T03:59:58;97822.22;;;1.01;66.51
37792;BME280;29527;55.766;37.570;2023-02-25T04:02:29;97816.50;;;0.83;66.67
37792;BME280;29527;55.766;37.570;2023-02-25T04:04:56;97783.09;;;0.59;66.79
37792;BME280;29527;55.766;37.570;2023-02-25T04:07:22;97822.00;;;0.80;66.92
37792;BME280;29527;55.766;37.570;2023-02-25T04:09:47;97823.69;;;0.81;66.95
37792;BME280;29527;55.766;37.570;2023-02-25T04:12:13;97818.09;;;0.85;66.83
37792;BME280;29527;55.766;37.570;2023-02-25T04:14:39;97772.34;;;0.62;66.90
37792;BME280;29527;55.766;37.570;2023-02-25T04:17:05;97816.75;;;0.80;67.20
37792;BME280;29527;55.766;37.570;2023-02-25T04:19:31;97812.44;;;0.79;67.51
37792;BME280;29527;55.766;37.570;2023-02-25T04:21:57;97816.19;;;0.88;67.08
37792;BME280;29527;55.766;37.570;2023-02-25T04:24:22;97812.91;;;0.84;67.30
37792;BME280;29527;55.766;37.570;2023-02-25T04:26:48;97811.25;;;0.83;67.51
37792;BME280;29527;55.766;37.570;2023-02-25T04:29:13;97809.56;;;0.82;67.26
37792;BME280;29527;55.766;37.570;2023-02-25T04:31:39;97819.00;;;0.97;67.18
37792;BME280;29527;55.766;37.570;2023-02-25T04:34:04;97822.13;;;1.03;66.85
37792;BME280;29527;55.766;37.570;2023-02-25T04:36:32;97822.22;;;1.01;67.16
37792;BME280;29527;55.766;37.570;2023-02-25T04:39:00;97808.09;;;1.02;67.22
37792;BME280;29527;55.766;37.570;2023-02-25T04:41:28;97809.75;;;1.03;67.28
37792;BME280;29527;55.766;37.570;2023-02-25T04:43:55;97816.63;;;1.06;67.31
37792;BME280;29527;55.766;37.570;2023-02-25T04:46:20;97823.34;;;1.10;67.14
37792;BME280;29527;55.766;37.570;2023-02-25T04:48:46;97817.13;;;1.11;67.23
37792;BME280;29527;55.766;37.570;2023-02-25T04:51:11;97819.19;;;1.19;67.01
37792;BME280;29527;55.766;37.570;2023-02-25T04:53:36;97831.50;;;1.18;67.07
37792;BME280;29527;55.766;37.570;2023-02-25T04:56:07;97825.91;;;1.23;67.21
37792;BME280;29527;55.766;37.570;2023-02-25T04:58:33;97824.94;;;1.24;67.14
37792;BME280;29527;55.766;37.570;2023-02-25T05:01:00;97826.41;;;1.28;66.68
37792;BME280;29527;55.766;37.570;2023-02-25T05:03:28;97825.81;;;1.24;67.19
37792;BME280;29527;55.766;37.570;2023-02-25T05:05:54;97832.53;;;1.28;67.09
37792;BME280;29527;55.766;37.570;2023-02-25T05:08:20;97827.97;;;1.31;67.18
37792;BME280;29527;55.766;37.570;2023-02-25T05:10:46;97835.41;;;1.37;66.77
37792;BME280;29527;55.766;37.570;2023-02-25T05:13:11;97832.53;;;1.40;67.50
37792;BME280;29527;55.766;37.570;2023-02-25T05:15:37;97827.16;;;1.41;67.05
37792;BME280;29527;55.766;37.570;2023-02-25T05:18:02;97831.50;;;1.42;67.06
37792;BME280;29527;55.766;37.570;2023-02-25T05:20:28;97829.69;;;1.43;67.26
37792;BME280;29527;55.766;37.570;2023-02-25T05:22:54;97822.53;;;1.45;66.96
37792;BME280;29527;55.766;37.570;2023-02-25T05:25:19;97825.63;;;1.50;67.36
37792;BME280;29527;55.766;37.570;2023-02-25T05:27:44;97833.41;;;1.52;67.43
37792;BME280;29527;55.766;37.570;2023-02-25T05:30:10;97837.63;;;1.54;67.09
37792;BME280;29527;55.766;37.570;2023-02-25T05:32:36;97832.59;;;1.63;67.03
37792;BME280;29527;55.766;37.570;2023-02-25T05:35:04;97843.06;;;1.64;67.35
37792;BME280;29527;55.766;37.570;2023-02-25T05:37:30;97833.94;;;1.68;67.15
37792;BME280;29527;55.766;37.570;2023-02-25T05:39:56;97837.31;;;1.70;66.79
37792;BME280;29527;55.766;37.570;2023-02-25T05:42:23;97834.56;;;1.72;67.01
37792;BME280;29527;55.766;37.570;2023-02-25T05:44:48;97842.25;;;1.75;67.64
37792;BME280;29527;55.766;37.570;2023-02-25T05:47:14;97842.63;;;1.82;67.14
37792;BME280;29527;55.766;37.570;2023-02-25T05:49:40;97851.97;;;1.86;67.19
37792;BME280;29527;55.766;37.570;2023-02-25T05:52:07;97854.47;;;1.88;67.31
37792;BME280;29527;55.766;37.570;2023-02-25T05:54:32;97842.84;;;1.90;67.39
37792;BME280;29527;55.766;37.570;2023-02-25T05:56:58;97831.59;;;1.88;67.37
37792;BME280;29527;55.766;37.570;2023-02-25T05:59:24;97836.03;;;1.99;67.49
37792;BME280;29527;55.766;37.570;2023-02-25T06:01:49;97828.09;;;2.10;67.09
37792;BME280;29527;55.766;37.570;2023-02-25T06:04:15;97844.69;;;2.24;66.92
37792;BME280;29527;55.766;37.570;2023-02-25T06:06:40;97841.19;;;2.35;66.57
37792;BME280;29527;55.766;37.570;2023-02-25T06:09:06;97846.59;;;2.44;66.22
37792;BME280;29527;55.766;37.570;2023-02-25T06:11:34;97856.44;;;2.54;65.62
37792;BME280;29527;55.766;37.570;2023-02-25T06:13:59;97856.69;;;2.51;65.18
37792;BME280;29527;55.766;37.570;2023-02-25T06:16:26;97850.31;;;2.42;65.95
37792;BME280;29527;55.766;37.570;2023-02-25T06:19:00;97841.66;;;2.40;65.68
37792;BME280;29527;55.766;37.570;2023-02-25T06:21:26;97841.78;;;2.38;65.93
37792;BME280;29527;55.766;37.570;2023-02-25T06:23:52;97848.28;;;2.46;65.85
37792;BME280;29527;55.766;37.570;2023-02-25T06:26:17;97847.53;;;2.55;65.94
37792;BME280;29527;55.766;37.570;2023-02-25T06:28:43;97859.06;;;2.65;64.92
37792;BME280;29527;55.766;37.570;2023-02-25T06:31:11;97858.81;;;2.68;65.44
37792;BME280;29527;55.766;37.570;2023-02-25T06:33:38;97840.06;;;2.71;65.32
37792;BME280;29527;55.766;37.570;2023-02-25T06:36:05;97830.84;;;2.66;65.29
37792;BME280;29527;55.766;37.570;2023-02-25T06:38:32;97846.66;;;2.77;64.96
37792;BME280;29527;55.766;37.570;2023-02-25T06:40:58;97847.97;;;2.83;64.75
37792;BME280;29527;55.766;37.570;2023-02-25T06:43:23;97813.41;;;2.75;64.76
37792;BME280;29527;55.766;37.570;2023-02-25T06:45:49;97820.81;;;2.81;64.29
37792;BME280;29527;55.766;37.570;2023-02-25T06:48:14;97825.59;;;2.98;64.55
37792;BME280;29527;55.766;37.570;2023-02-25T06:50:42;97841.13;;;3.13;63.91
37792;BME280;29527;55.766;37.570;2023-02-25T06:53:07;97827.25;;;2.99;63.79
37792;BME280;29527;55.766;37.570;2023-02-25T06:55:33;97838.03;;;3.08;63.82
37792;BME280;29527;55.766;37.570;2023-02-25T06:57:59;97817.31;;;2.92;63.72
37792;BME280;29527;55.766;37.570;2023-02-25T07:00:24;97856.56;;;3.08;64.02
37792;BME280;29527;55.766;37.570;2023-02-25T07:02:50;97856.09;;;3.03;64.35
37792;BME280;29527;55.766;37.570;2023-02-25T07:05:15;97857.66;;;3.05;64.06
37792;BME280;29527;55.766;37.570;2023-02-25T07:07:41;97851.16;;;3.09;64.07
37792;BME280;29527;55.766;37.570;2023-02-25T07:10:07;97819.84;;;2.93;64.00
37792;BME280;29527;55.766;37.570;2023-02-25T07:12:34;97849.31;;;3.10;63.68
37792;BME280;29527;55.766;37.570;2023-02-25T07:14:59;97848.00;;;3.15;64.65
37792;BME280;29527;55.766;37.570;2023-02-25T07:17:25;97857.59;;;3.28;63.54
37792;BME280;29527;55.766;37.570;2023-02-25T07:19:50;97840.50;;;3.32;63.58
37792;BME280;29527;55.766;37.570;2023-02-25T07:22:17;97845.84;;;3.42;63.28
37792;BME280;29527;55.766;37.570;2023-02-25T07:24:43;97854.44;;;3.55;63.17
37792;BME280;29527;55.766;37.570;2023-02-25T07:27:11;97858.47;;;3.71;62.56
37792;BME280;29527;55.766;37.570;2023-02-25T07:29:37;97857.03;;;3.88;62.72
37792;BME280;29527;55.766;37.570;2023-02-25T07:32:03;97847.63;;;4.05;61.93
37792;BME280;29527;55.766;37.570;2023-02-25T07:34:29;97846.59;;;4.18;61.23
37792;BME280;29527;55.766;37.570;2023-02-25T07:36:54;97854.72;;;4.26;61.00
37792;BME280;29527;55.766;37.570;2023-02-25T07:39:20;97858.97;;;4.38;60.68
37792;BME280;29527;55.766;37.570;2023-02-25T07:41:47;97870.13;;;4.42;60.64
37792;BME280;29527;55.766;37.570;2023-02-25T07:44:12;97860.22;;;4.34;61.25
37792;BME280;29527;55.766;37.570;2023-02-25T07:46:37;97852.22;;;4.24;61.53
37792;BME280;29527;55.766;37.570;2023-02-25T07:49:03;97859.75;;;4.29;61.81
37792;BME280;29527;55.766;37.570;2023-02-25T07:51:29;97858.91;;;4.28;62.04
37792;BME280;29527;55.766;37.570;2023-02-25T07:53:55;97867.88;;;4.37;62.34
37792;BME280;29527;55.766;37.570;2023-02-25T07:56:23;97867.06;;;4.47;62.33
37792;BME280;29527;55.766;37.570;2023-02-25T07:58:48;97865.56;;;4.54;61.72
37792;BME280;29527;55.766;37.570;2023-02-25T08:01:23;97861.16;;;4.64;62.09
37792;BME280;29527;55.766;37.570;2023-02-25T08:03:50;97863.53;;;4.67;61.15
37792;BME280;29527;55.766;37.570;2023-02-25T08:06:16;97874.28;;;4.76;61.59
37792;BME280;29527;55.766;37.570;2023-02-25T08:08:42;97880.16;;;4.79;61.32
37792;BME280;29527;55.766;37.570;2023-02-25T08:11:09;97869.13;;;4.74;62.12
37792;BME280;29527;55.766;37.570;2023-02-25T08:13:35;97875.94;;;4.67;61.97
37792;BME280;29527;55.766;37.570;2023-02-25T08:16:05;97860.84;;;4.57;62.80
37792;BME280;29527;55.766;37.570;2023-02-25T08:18:31;97867.69;;;4.60;62.36
37792;BME280;29527;55.766;37.570;2023-02-25T08:20:56;97862.63;;;4.57;62.70
37792;BME280;29527;55.766;37.570;2023-02-25T08:23:24;97885.97;;;4.63;62.52
37792;BME280;29527;55.766;37.570;2023-02-25T08:25:53;97875.50;;;4.62;63.25
37792;BME280;29527;55.766;37.570;2023-02-25T08:28:22;97881.66;;;4.62;63.27
37792;BME280;29527;55.766;37.570;2023-02-25T08:30:49;97871.16;;;4.60;63.03
37792;BME280;29527;55.766;37.570;2023-02-25T08:33:15;97876.16;;;4.54;63.21
37792;BME280;29527;55.766;37.570;2023-02-25T08:35:41;97875.19;;;4.55;63.61
37792;BME280;29527;55.766;37.570;2023-02-25T08:38:07;97872.38;;;4.47;62.99
37792;BME280;29527;55.766;37.570;2023-02-25T08:40:33;97887.56;;;4.44;63.33
37792;BME280;29527;55.766;37.570;2023-02-25T08:42:59;97889.50;;;4.42;63.13
37792;BME280;29527;55.766;37.570;2023-02-25T08:45:24;97887.63;;;4.33;63.85
37792;BME280;29527;55.766;37.570;2023-02-25T08:47:49;97877.84;;;4.24;63.79
37792;BME280;29527;55.766;37.570;2023-02-25T08:50:15;97884.97;;;4.23;63.84
37792;BME280;29527;55.766;37.570;2023-02-25T08:52:42;97883.41;;;4.21;63.97
37792;BME280;29527;55.766;37.570;2023-02-25T08:55:09;97880.38;;;4.25;63.80
37792;BME280;29527;55.766;37.570;2023-02-25T08:57:39;97874.81;;;4.28;63.80
37792;BME280;29527;55.766;37.570;2023-02-25T09:00:05;97869.09;;;4.33;63.97
37792;BME280;29527;55.766;37.570;2023-02-25T09:02:31;97864.25;;;4.38;63.87
37792;BME280;29527;55.766;37.570;2023-02-25T09:04:56;97880.06;;;4.50;63.26
37792;BME280;29527;55.766;37.570;2023-02-25T09:07:22;97871.53;;;4.46;63.18
37792;BME280;29527;55.766;37.570;2023-02-25T09:09:47;97872.25;;;4.48;64.17
37792;BME280;29527;55.766;37.570;2023-02-25T09:12:13;97874.47;;;4.53;64.58
37792;BME280;29527;55.766;37.570;2023-02-25T09:14:38;97878.28;;;4.60;63.83
37792;BME280;29527;55.766;37.570;2023-02-25T09:17:06;97879.13;;;4.60;63.48
37792;BME280;29527;55.766;37.570;2023-02-25T09:19:32;97884.31;;;4.62;63.85
37792;BME280;29527;55.766;37.570;2023-02-25T09:21:58;97877.16;;;4.63;64.28
37792;BME280;29527;55.766;37.570;2023-02-25T09:24:23;97883.31;;;4.63;64.09
37792;BME280;29527;55.766;37.570;2023-02-25T09:26:49;97878.84;;;4.64;65.04
37792;BME280;29527;55.766;37.570;2023-02-25T09:29:15;97846.72;;;4.47;64.55
37792;BME280;29527;55.766;37.570;2023-02-25T09:31:41;97881.09;;;4.68;64.83
37792;BME280;29527;55.766;37.570;2023-02-25T09:34:09;97884.50;;;4.80;64.21
37792;BME280;29527;55.766;37.570;2023-02-25T09:36:35;97884.22;;;4.83;64.06
37792;BME280;29527;55.766;37.570;2023-02-25T09:39:01;97881.44;;;4.85;63.73
37792;BME280;29527;55.766;37.570;2023-02-25T09:41:47;97875.28;;;4.84;63.24
37792;BME280;29527;55.766;37.570;2023-02-25T09:44:20;97874.16;;;4.77;63.21
37792;BME280;29527;55.766;37.570;2023-02-25T09:46:57;97872.19;;;4.69;63.82
37792;BME280;29527;55.766;37.570;2023-02-25T09:49:34;97870.63;;;4.67;64.33
37792;BME280;29527;55.766;37.570;2023-02-25T09:55:05;97876.56;;;4.90;64.19
37792;BME280;29527;55.766;37.570;2023-02-25T09:57:37;97880.00;;;4.81;63.30
37792;BME280;29527;55.766;37.570;2023-02-25T10:00:15;97870.22;;;4.71;63.38
37792;BME280;29527;55.766;37.570;2023-02-25T10:11:06;97868.06;;;4.96;63.52
37792;BME280;29527;55.766;37.570;2023-02-25T10:13:53;97878.56;;;5.08;62.78
37792;BME280;29527;55.766;37.570;2023-02-25T10:24:52;97876.44;;;5.11;62.37
37792;BME280;29527;55.766;37.570;2023-02-25T10:29:48;97878.16;;;5.62;61.03
37792;BME280;29527;55.766;37.570;2023-02-25T10:32:24;97874.25;;;5.36;62.02
37792;BME280;29527;55.766;37.570;2023-02-25T10:34:55;97888.22;;;5.38;61.87
37792;BME280;29527;55.766;37.570;2023-02-25T10:37:29;97883.19;;;5.35;61.60
37792;BME280;29527;55.766;37.570;2023-02-25T10:39:58;97863.19;;;5.21;61.96
37792;BME280;29527;55.766;37.570;2023-02-25T10:42:25;97885.81;;;5.25;61.61
37792;BME280;29527;55.766;37.570;2023-02-25T10:44:51;97884.00;;;5.16;61.70
37792;BME280;29527;55.766;37.570;2023-02-25T10:47:33;97850.19;;;4.98;62.34
37792;BME280;29527;55.766;37.570;2023-02-25T10:50:21;97876.75;;;5.18;62.72
37792;BME280;29527;55.766;37.570;2023-02-25T10:53:03;97881.63;;;5.13;62.22
37792;BME280;29527;55.766;37.570;2023-02-25T10:55:47;97886.66;;;5.16;63.26
37792;BME280;29527;55.766;37.570;2023-02-25T11:01:18;97885.97;;;5.24;62.92
37792;BME280;29527;55.766;37.570;2023-02-25T11:03:51;97895.06;;;5.31;62.35
37792;BME280;29527;55.766;37.570;2023-02-25T11:06:23;97895.75;;;5.33;62.18
37792;BME280;29527;55.766;37.570;2023-02-25T11:08:49;97889.47;;;5.24;61.95
37792;BME280;29527;55.766;37.570;2023-02-25T11:13:43;97892.53;;;5.10;61.92
37792;BME280;29527;55.766;37.570;2023-02-25T11:16:11;97891.28;;;5.14;62.32
37792;BME280;29527;55.766;37.570;2023-02-25T11:18:38;97877.59;;;5.09;63.08
37792;BME280;29527;55.766;37.570;2023-02-25T11:21:08;97897.81;;;5.10;62.63
37792;BME280;29527;55.766;37.570;2023-02-25T11:26:06;97897.22;;;4.96;63.55
37792;BME280;29527;55.766;37.570;2023-02-25T11:33:33;97886.50;;;4.98;63.07
37792;BME280;29527;55.766;37.570;2023-02-25T11:36:00;97870.59;;;4.98;62.80
37792;BME280;29527;55.766;37.570;2023-02-25T11:38:31;97877.31;;;5.12;62.84
37792;BME280;29527;55.766;37.570;2023-02-25T11:40:57;97884.84;;;5.16;62.30
37792;BME280;29527;55.766;37.570;2023-02-25T11:43:33;97854.81;;;5.06;63.17
37792;BME280;29527;55.766;37.570;2023-02-25T11:46:08;97880.53;;;5.45;62.57
37792;BME280;29527;55.766;37.570;2023-02-25T11:56:28;97899.81;;;5.86;60.75
37792;BME280;29527;55.766;37.570;2023-02-25T11:59:04;97893.94;;;5.93;60.68
37792;BME280;29527;55.766;37.570;2023-02-25T12:01:51;97899.25;;;5.93;61.16
37792;BME280;29527;55.766;37.570;2023-02-25T12:07:07;97896.19;;;5.68;60.75
37792;BME280;29527;55.766;37.570;2023-02-25T12:10:13;97904.56;;;5.63;61.54
37792;BME280;29527;55.766;37.570;2023-02-25T12:40:43;97922.81;;;5.07;62.53
37792;BME280;29527;55.766;37.570;2023-02-25T12:43:29;97922.34;;;4.92;62.75
37792;BME280;29527;55.766;37.570;2023-02-25T12:51:51;97925.31;;;4.68;64.30
37792;BME280;29527;55.766;37.570;2023-02-25T12:54:27;97926.28;;;4.67;64.17
37792;BME280;29527;55.766;37.570;2023-02-25T13:16:20;97911.81;;;4.71;65.42
37792;BME280;29527;55.766;37.570;2023-02-25T13:21:58;97910.25;;;4.68;64.56
37792;BME280;29527;55.766;37.570;2023-02-25T13:27:26;97904.81;;;4.70;64.99
37792;BME280;29527;55.766;37.570;2023-02-25T13:32:53;97906.31;;;4.63;65.31
37792;BME280;29527;55.766;37.570;2023-02-25T13:41:51;97899.97;;;4.75;65.15
37792;BME280;29527;55.766;37.570;2023-02-25T13:45:00;97902.75;;;4.73;65.24
37792;BME280;29527;55.766;37.570;2023-02-25T13:50:36;97900.09;;;4.73;65.00
37792;BME280;29527;55.766;37.570;2023-02-25T13:58:54;97891.50;;;4.50;66.70
37792;BME280;29527;55.766;37.570;2023-02-25T14:07:00;97886.31;;;4.49;66.48
37792;BME280;29527;55.766;37.570;2023-02-25T14:09:44;97893.56;;;4.47;66.45
37792;BME280;29527;55.766;37.570;2023-02-25T14:12:36;97898.16;;;4.44;66.49
37792;BME280;29527;55.766;37.570;2023-02-25T14:20:42;97905.47;;;4.31;66.47
37792;BME280;29527;55.766;37.570;2023-02-25T14:23:38;97913.13;;;4.24;66.80
37792;BME280;29527;55.766;37.570;2023-02-25T14:29:13;97917.16;;;4.19;67.39
37792;BME280;29527;55.766;37.570;2023-02-25T14:31:45;97911.25;;;4.15;67.39
37792;BME280;29527;55.766;37.570;2023-02-25T14:37:24;97927.34;;;4.23;67.78
37792;BME280;29527;55.766;37.570;2023-02-25T14:40:28;97914.34;;;4.20;67.98
37792;BME280;29527;55.766;37.570;2023-02-25T14:45:35;97918.44;;;4.03;67.65
37792;BME280;29527;55.766;37.570;2023-02-25T14:48:18;97909.59;;;3.93;67.64
37792;BME280;29527;55.766;37.570;2023-02-25T14:50:47;97922.56;;;3.96;68.34
37792;BME280;29527;55.766;37.570;2023-02-25T15:02:11;97908.81;;;4.02;68.05
37792;BME280;29527;55.766;37.570;2023-02-25T15:07:53;97906.25;;;3.91;69.32
37792;BME280;29527;55.766;37.570;2023-02-25T15:18:32;97916.69;;;3.92;69.28
37792;BME280;29527;55.766;37.570;2023-02-25T15:21:42;97912.88;;;4.06;68.93
37792;BME280;29527;55.766;37.570;2023-02-25T15:26:48;97906.09;;;3.92;68.71
37792;BME280;29527;55.766;37.570;2023-02-25T15:29:46;97907.28;;;3.99;69.23
37792;BME280;29527;55.766;37.570;2023-02-25T15:32:20;97913.41;;;4.00;68.85
37792;BME280;29527;55.766;37.570;2023-02-25T15:34:54;97908.97;;;4.00;68.37
37792;BME280;29527;55.766;37.570;2023-02-25T15:37:24;97908.88;;;3.91;68.96
37792;BME280;29527;55.766;37.570;2023-02-25T15:39:54;97899.53;;;3.86;69.09
37792;BME280;29527;55.766;37.570;2023-02-25T15:42:50;97901.06;;;3.89;68.84
37792;BME280;29527;55.766;37.570;2023-02-25T16:06:02;97888.53;;;3.70;69.55
37792;BME280;29527;55.766;37.570;2023-02-25T16:09:05;97894.88;;;3.79;69.44
37792;BME280;29527;55.766;37.570;2023-02-25T16:11:38;97882.28;;;3.71;69.38
37792;BME280;29527;55.766;37.570;2023-02-25T16:14:15;97915.97;;;3.69;69.76
37792;BME280;29527;55.766;37.570;2023-02-25T16:16:50;97905.66;;;3.66;70.06
37792;BME280;29527;55.766;37.570;2023-02-25T16:19:21;97908.41;;;3.64;70.21
37792;BME280;29527;55.766;37.570;2023-02-25T16:21:54;97882.53;;;3.68;70.08
37792;BME280;29527;55.766;37.570;2023-02-25T16:24:21;97875.50;;;3.57;69.44
37792;BME280;29527;55.766;37.570;2023-02-25T16:27:02;97881.03;;;3.75;69.45
37792;BME280;29527;55.766;37.570;2023-02-25T16:40:19;97877.03;;;3.59;69.53
37792;BME280;29527;55.766;37.570;2023-02-25T16:42:45;97875.09;;;3.62;69.09
37792;BME280;29527;55.766;37.570;2023-02-25T16:45:22;97888.72;;;3.57;69.43
37792;BME280;29527;55.766;37.570;2023-02-25T16:47:53;97888.38;;;3.50;69.66
37792;BME280;29527;55.766;37.570;2023-02-25T16:50:23;97863.00;;;3.48;69.29
37792;BME280;29527;55.766;37.570;2023-02-25T16:52:49;97867.72;;;3.44;69.69